createdAt,value
2022-11-25T00:01:16.118Z,98251.72
2022-11-25T00:03:43.949Z,98255.16
2022-11-25T00:06:17.055Z,98261.22
2022-11-25T00:08:45.639Z,98262.72
2022-11-25T00:11:14.065Z,98252.75
2022-11-25T00:13:41.819Z,98255.81
2022-11-25T00:16:14.057Z,98265.09
2022-11-25T00:18:44.891Z,98262.50
2022-11-25T00:21:14.383Z,98254.88
2022-11-25T00:23:41.144Z,98253.53
2022-11-25T00:26:14.985Z,98255.59
2022-11-25T00:28:44.188Z,98259.34
2022-11-25T00:31:15.089Z,98252.63
2022-11-25T00:33:41.749Z,98250.59
2022-11-25T00:36:16.204Z,98254.41
2022-11-25T00:38:42.855Z,98257.91
2022-11-25T00:41:28.204Z,98250.25
2022-11-25T00:46:44.788Z,98251.09
2022-11-25T00:49:11.439Z,98259.88
2022-11-25T00:54:09.584Z,98246.53
2022-11-25T00:56:36.172Z,98253.66
2022-11-25T00:59:03.447Z,98250.06
2022-11-25T01:01:30.160Z,98257.63
2022-11-25T01:03:56.855Z,98259.88
2022-11-25T01:06:23.983Z,98261.72
2022-11-25T01:08:50.911Z,98266.47
2022-11-25T01:11:20.774Z,98268.06
2022-11-25T01:13:47.990Z,98265.44
2022-11-25T01:16:18.285Z,98266.28
2022-11-25T01:18:45.755Z,98267.91
2022-11-25T01:21:15.457Z,98266.38
2022-11-25T01:23:42.941Z,98267.69
2022-11-25T01:26:12.531Z,98271.78
2022-11-25T01:28:39.734Z,98277.63
2022-11-25T01:31:21.306Z,98269.66
2022-11-25T01:33:52.235Z,98273.75
2022-11-25T01:36:19.729Z,98270.84
2022-11-25T01:38:52.183Z,98259.81
2022-11-25T01:41:19.562Z,98245.41
2022-11-25T01:44:10.996Z,98249.66
2022-11-25T01:46:58.165Z,98255.69
2022-11-25T01:52:19.630Z,98250.53
2022-11-25T01:55:05.701Z,98253.75
2022-11-25T01:57:41.085Z,98252.72
2022-11-25T02:00:08.752Z,98248.69
2022-11-25T02:02:36.167Z,98247.50
2022-11-25T02:05:08.223Z,98254.69
2022-11-25T02:07:41.323Z,98242.22
2022-11-25T02:10:11.842Z,98248.28
2022-11-25T02:12:41.384Z,98246.00
2022-11-25T02:17:40.131Z,98256.66
2022-11-25T02:20:11.562Z,98254.72
2022-11-25T02:22:52.312Z,98253.47
2022-11-25T02:25:45.793Z,98262.06
2022-11-25T02:28:18.452Z,98252.47
2022-11-25T02:30:46.242Z,98260.56
2022-11-25T02:33:13.376Z,98251.03
2022-11-25T02:35:42.471Z,98254.63
2022-11-25T02:38:37.492Z,98246.69
2022-11-25T02:41:13.618Z,98254.94
2022-11-25T02:43:41.468Z,98252.00
2022-11-25T02:46:18.786Z,98252.78
2022-11-25T02:51:35.211Z,98258.78
2022-11-25T02:54:02.049Z,98253.28
2022-11-25T02:56:31.818Z,98249.28
2022-11-25T03:01:32.152Z,98241.69
2022-11-25T03:03:59.545Z,98250.66
2022-11-25T03:06:26.508Z,98243.88
2022-11-25T03:08:54.026Z,98246.31
2022-11-25T03:11:20.846Z,98234.56
2022-11-25T03:13:47.603Z,98243.28
2022-11-25T03:16:14.304Z,98237.22
2022-11-25T03:18:41.026Z,98234.81
2022-11-25T03:21:07.796Z,98233.44
2022-11-25T03:23:34.489Z,98237.09
2022-11-25T03:26:05.821Z,98232.34
2022-11-25T03:28:32.485Z,98234.03
2022-11-25T03:30:59.136Z,98238.59
2022-11-25T03:33:25.833Z,98229.66
2022-11-25T03:38:26.809Z,98224.91
2022-11-25T03:40:53.513Z,98225.25
2022-11-25T03:43:20.840Z,98231.03
2022-11-25T03:45:52.897Z,98227.25
2022-11-25T03:48:19.601Z,98223.72
2022-11-25T03:50:48.682Z,98228.75
2022-11-25T03:53:15.348Z,98233.25
2022-11-25T03:55:42.044Z,98227.53
2022-11-25T04:00:40.275Z,98222.94
2022-11-25T04:03:06.969Z,98229.78
2022-11-25T04:05:33.585Z,98232.34
2022-11-25T04:08:00.345Z,98231.41
2022-11-25T04:10:26.994Z,98228.31
2022-11-25T04:12:54.379Z,98218.78
2022-11-25T04:15:21.260Z,98220.69
2022-11-25T04:17:47.958Z,98223.94
2022-11-25T04:20:15.701Z,98218.59
2022-11-25T04:22:42.723Z,98220.94
2022-11-25T04:25:10.060Z,98223.16
2022-11-25T04:27:36.756Z,98222.16
2022-11-25T04:30:04.272Z,98222.81
2022-11-25T04:32:30.932Z,98216.06
2022-11-25T04:34:57.599Z,98224.47
2022-11-25T04:37:24.291Z,98217.31
2022-11-25T04:39:50.989Z,98219.41
2022-11-25T04:42:33.495Z,98213.22
2022-11-25T04:45:22.496Z,98225.00
2022-11-25T04:47:49.478Z,98214.19
2022-11-25T04:50:19.151Z,98214.66
2022-11-25T04:52:45.929Z,98214.63
2022-11-25T04:55:12.709Z,98214.88
2022-11-25T04:57:39.439Z,98220.66
2022-11-25T05:00:07.037Z,98221.00
2022-11-25T05:02:33.814Z,98223.22
2022-11-25T05:05:00.546Z,98224.81
2022-11-25T05:07:28.644Z,98218.78
2022-11-25T05:09:56.242Z,98225.63
2022-11-25T05:12:25.831Z,98228.97
2022-11-25T05:14:52.594Z,98233.00
2022-11-25T05:17:22.034Z,98227.44
2022-11-25T05:19:49.632Z,98229.34
2022-11-25T05:22:19.651Z,98236.94
2022-11-25T05:24:46.341Z,98240.88
2022-11-25T05:27:13.178Z,98246.31
2022-11-25T05:29:40.007Z,98236.47
2022-11-25T05:32:07.279Z,98227.63
2022-11-25T05:34:35.216Z,98222.09
2022-11-25T05:37:02.138Z,98227.88
2022-11-25T05:39:28.960Z,98230.84
2022-11-25T05:41:55.678Z,98231.47
2022-11-25T05:46:59.824Z,98235.69
2022-11-25T05:49:26.511Z,98237.13
2022-11-25T05:51:53.185Z,98241.22
2022-11-25T05:54:19.893Z,98245.38
2022-11-25T05:56:46.532Z,98249.28
2022-11-25T05:59:13.165Z,98240.69
2022-11-25T06:01:39.865Z,98244.97
2022-11-25T06:04:06.533Z,98263.09
2022-11-25T06:06:33.276Z,98266.63
2022-11-25T06:09:00.241Z,98265.31
2022-11-25T06:11:27.306Z,98267.09
2022-11-25T06:13:56.999Z,98266.22
2022-11-25T06:16:24.205Z,98271.28
2022-11-25T06:18:51.095Z,98269.53
2022-11-25T06:21:18.165Z,98273.91
2022-11-25T06:23:47.601Z,98269.44
2022-11-25T06:26:15.798Z,98278.88
2022-11-25T06:31:20.439Z,98276.13
2022-11-25T06:33:48.710Z,98279.56
2022-11-25T06:36:18.971Z,98289.91
2022-11-25T06:41:21.415Z,98283.97
2022-11-25T06:43:48.228Z,98294.50
2022-11-25T06:46:22.760Z,98291.66
2022-11-25T06:48:51.840Z,98296.19
2022-11-25T06:51:18.549Z,98293.72
2022-11-25T06:53:45.266Z,98299.78
2022-11-25T06:56:17.768Z,98303.63
2022-11-25T06:58:45.503Z,98306.44
2022-11-25T07:01:13.712Z,98314.22
2022-11-25T07:03:41.512Z,98311.50
2022-11-25T07:06:09.149Z,98312.47
2022-11-25T07:11:18.527Z,98313.75
2022-11-25T07:13:46.324Z,98318.81
2022-11-25T07:16:14.043Z,98317.84
2022-11-25T07:18:41.749Z,98314.81
2022-11-25T07:21:14.849Z,98316.72
2022-11-25T07:23:43.022Z,98325.44
2022-11-25T07:26:15.457Z,98324.13
2022-11-25T07:28:42.817Z,98331.25
2022-11-25T07:31:23.746Z,98325.22
2022-11-25T07:33:53.410Z,98326.97
2022-11-25T07:36:20.422Z,98327.84
2022-11-25T07:38:47.132Z,98321.13
2022-11-25T07:41:19.798Z,98331.94
2022-11-25T07:43:52.690Z,98328.84
2022-11-25T07:46:26.817Z,98338.06
2022-11-25T07:48:56.005Z,98342.47
2022-11-25T07:51:32.601Z,98347.59
2022-11-25T07:54:01.560Z,98356.25
2022-11-25T07:56:29.752Z,98345.28
2022-11-25T07:58:57.848Z,98348.09
2022-11-25T08:01:25.227Z,98350.63
2022-11-25T08:03:53.547Z,98353.63
2022-11-25T08:06:22.424Z,98364.63
2022-11-25T08:08:49.486Z,98357.66
2022-11-25T08:11:21.800Z,98360.19
2022-11-25T08:13:48.870Z,98371.59
2022-11-25T08:16:18.197Z,98371.50
2022-11-25T08:18:45.470Z,98366.34
2022-11-25T08:21:13.876Z,98361.31
2022-11-25T08:23:43.483Z,98364.69
2022-11-25T08:26:13.876Z,98370.50
2022-11-25T08:28:41.645Z,98369.00
2022-11-25T08:31:15.655Z,98368.72
2022-11-25T08:33:43.492Z,98373.41
2022-11-25T08:36:10.791Z,98366.22
2022-11-25T08:38:37.705Z,98367.72
2022-11-25T08:41:13.676Z,98358.75
2022-11-25T08:43:40.820Z,98353.31
2022-11-25T08:46:13.187Z,98348.25
2022-11-25T08:48:40.310Z,98350.72
2022-11-25T08:51:19.236Z,98355.94
2022-11-25T08:53:47.313Z,98360.25
2022-11-25T08:56:15.106Z,98366.16
2022-11-25T08:58:41.766Z,98364.03
2022-11-25T09:01:08.712Z,98374.47
2022-11-25T09:03:38.860Z,98370.31
2022-11-25T09:06:06.772Z,98372.22
2022-11-25T09:08:33.855Z,98373.38
2022-11-25T09:11:01.368Z,98376.34
2022-11-25T09:13:28.020Z,98373.16
2022-11-25T09:15:55.035Z,98379.16
2022-11-25T09:18:26.245Z,98379.50
2022-11-25T09:20:53.586Z,98382.47
2022-11-25T09:23:20.945Z,98386.06
2022-11-25T09:25:55.276Z,98392.63
2022-11-25T09:28:22.733Z,98385.50
2022-11-25T09:30:50.070Z,98395.56
2022-11-25T09:33:17.713Z,98401.88
2022-11-25T09:35:44.463Z,98392.38
2022-11-25T09:38:11.150Z,98408.44
2022-11-25T09:40:52.049Z,98395.66
2022-11-25T09:43:44.393Z,98411.59
2022-11-25T09:46:59.212Z,98401.44
2022-11-25T09:49:53.330Z,98407.00
2022-11-25T09:52:52.684Z,98403.44
2022-11-25T09:55:24.779Z,98409.09
2022-11-25T09:58:13.597Z,98405.28
2022-11-25T10:00:43.751Z,98404.19
2022-11-25T10:03:16.832Z,98402.72
2022-11-25T10:05:52.808Z,98397.28
2022-11-25T10:11:02.231Z,98406.94
2022-11-25T10:13:55.129Z,98409.25
2022-11-25T10:16:36.066Z,98399.06
2022-11-25T10:19:17.747Z,98404.06
2022-11-25T10:21:46.527Z,98400.75
2022-11-25T10:24:15.473Z,98393.59
2022-11-25T10:26:44.568Z,98397.50
2022-11-25T10:29:13.824Z,98403.75
2022-11-25T10:31:43.054Z,98409.19
2022-11-25T10:34:21.150Z,98402.69
2022-11-25T10:36:51.897Z,98414.03
2022-11-25T10:39:29.211Z,98401.66
2022-11-25T10:42:03.719Z,98399.59
2022-11-25T10:44:32.922Z,98403.88
2022-11-25T10:47:35.682Z,98401.50
2022-11-25T10:50:08.107Z,98409.84
2022-11-25T10:52:40.426Z,98413.72
2022-11-25T10:55:16.603Z,98401.69
2022-11-25T10:57:43.768Z,98411.94
2022-11-25T11:00:32.944Z,98414.34
2022-11-25T11:03:13.993Z,98418.22
2022-11-25T11:05:50.985Z,98414.75
2022-11-25T11:08:43.669Z,98410.00
2022-11-25T11:11:18.816Z,98409.84
2022-11-25T11:13:47.035Z,98409.66
2022-11-25T11:16:28.229Z,98416.25
2022-11-25T11:18:56.595Z,98413.84
2022-11-25T11:21:23.186Z,98418.97
2022-11-25T11:23:52.341Z,98419.59
2022-11-25T11:26:27.872Z,98430.38
2022-11-25T11:29:00.188Z,98430.47
2022-11-25T11:31:34.593Z,98442.75
2022-11-25T11:37:17.083Z,98463.28
2022-11-25T11:40:14.192Z,98463.91
2022-11-25T11:42:56.151Z,98471.25
2022-11-25T11:45:25.429Z,98471.00
2022-11-25T11:48:09.990Z,98482.78
2022-11-25T11:50:48.508Z,98475.50
2022-11-25T11:53:44.017Z,98481.06
2022-11-25T11:56:36.192Z,98484.38
2022-11-25T11:59:18.714Z,98476.66
2022-11-25T12:02:17.757Z,98478.22
2022-11-25T12:04:58.095Z,98473.22
2022-11-25T12:07:33.655Z,98482.97
2022-11-25T12:10:15.626Z,98486.38
2022-11-25T12:12:49.297Z,98492.19
2022-11-25T12:15:28.863Z,98487.00
2022-11-25T12:18:02.673Z,98487.88
2022-11-25T12:20:48.676Z,98486.00
2022-11-25T12:23:31.401Z,98490.22
2022-11-25T12:26:06.241Z,98491.84
2022-11-25T12:28:48.083Z,98481.53
2022-11-25T12:31:23.460Z,98486.91
2022-11-25T12:34:03.265Z,98496.53
2022-11-25T12:36:45.714Z,98494.28
2022-11-25T12:39:24.682Z,98503.13
2022-11-25T12:41:55.104Z,98498.22
2022-11-25T12:44:43.018Z,98503.50
2022-11-25T12:47:11.582Z,98505.66
2022-11-25T12:49:48.507Z,98507.56
2022-11-25T12:52:45.327Z,98509.41
2022-11-25T12:55:19.116Z,98509.19
2022-11-25T12:57:51.418Z,98511.59
2022-11-25T13:00:40.376Z,98524.25
2022-11-25T13:03:29.940Z,98526.84
2022-11-25T13:06:16.413Z,98531.63
2022-11-25T13:08:52.096Z,98551.38
2022-11-25T13:11:43.746Z,98548.16
2022-11-25T13:14:41.157Z,98558.34
2022-11-25T13:17:12.758Z,98562.19
2022-11-25T13:19:39.690Z,98559.94
2022-11-25T13:22:30.050Z,98559.53
2022-11-25T13:24:59.767Z,98571.78
2022-11-25T13:27:33.130Z,98573.56
2022-11-25T13:30:01.242Z,98570.19
2022-11-25T13:32:31.493Z,98578.09
2022-11-25T13:35:22.702Z,98571.97
2022-11-25T13:37:50.327Z,98581.28
2022-11-25T13:40:23.580Z,98581.38
2022-11-25T13:42:52.184Z,98581.38
2022-11-25T13:45:38.554Z,98589.19
2022-11-25T13:48:13.616Z,98595.97
2022-11-25T13:51:09.398Z,98590.31
2022-11-25T13:53:35.583Z,98591.53
2022-11-25T13:56:33.041Z,98604.69
2022-11-25T13:59:11.798Z,98598.00
2022-11-25T14:01:59.806Z,98605.00
2022-11-25T14:04:48.171Z,98607.47
2022-11-25T14:07:37.228Z,98604.53
2022-11-25T14:10:15.922Z,98614.25
2022-11-25T14:13:01.073Z,98612.00
2022-11-25T14:15:49.260Z,98614.16
2022-11-25T14:18:51.151Z,98617.66
2022-11-25T14:21:44.453Z,98630.47
2022-11-25T14:24:17.591Z,98631.72
2022-11-25T14:26:50.707Z,98633.75
2022-11-25T14:29:32.653Z,98630.34
2022-11-25T14:32:10.850Z,98639.13
2022-11-25T14:34:43.116Z,98639.38
2022-11-25T14:37:18.601Z,98636.13
2022-11-25T14:39:58.085Z,98637.59
2022-11-25T14:42:32.493Z,98645.09
2022-11-25T14:44:59.510Z,98645.66
2022-11-25T14:47:28.377Z,98647.81
2022-11-25T14:52:47.919Z,98656.88
2022-11-25T14:55:26.793Z,98657.56
2022-11-25T14:57:53.570Z,98664.25
2022-11-25T15:00:20.949Z,98663.47
2022-11-25T15:03:00.943Z,98662.69
2022-11-25T15:08:07.897Z,98665.41
2022-11-25T15:10:41.106Z,98672.09
2022-11-25T15:13:33.503Z,98677.28
2022-11-25T15:16:22.905Z,98679.34
2022-11-25T15:18:53.535Z,98678.66
2022-11-25T15:24:27.420Z,98681.59
2022-11-25T15:26:57.281Z,98690.44
2022-11-25T15:29:24.588Z,98689.31
2022-11-25T15:31:53.536Z,98695.88
2022-11-25T15:34:21.994Z,98705.28
2022-11-25T15:36:54.048Z,98709.72
2022-11-25T15:39:21.130Z,98709.94
2022-11-25T15:41:49.610Z,98709.72
2022-11-25T15:44:28.845Z,98720.81
2022-11-25T15:47:01.022Z,98718.56
2022-11-25T15:49:28.265Z,98726.38
2022-11-25T15:52:06.079Z,98725.38
2022-11-25T15:54:39.841Z,98741.00
2022-11-25T15:57:22.121Z,98732.50
2022-11-25T16:00:19.321Z,98727.06
2022-11-25T16:02:45.962Z,98732.28
2022-11-25T16:05:12.655Z,98733.28
2022-11-25T16:07:40.011Z,98725.38
2022-11-25T16:10:28.622Z,98731.38
2022-11-25T16:13:22.160Z,98740.56
2022-11-25T16:15:55.882Z,98741.47
2022-11-25T16:18:51.756Z,98743.28
2022-11-25T16:21:30.867Z,98746.91
2022-11-25T16:24:20.025Z,98754.63
2022-11-25T16:27:00.932Z,98756.41
2022-11-25T16:29:30.957Z,98765.94
2022-11-25T16:31:58.590Z,98768.19
2022-11-25T16:34:26.887Z,98767.41
2022-11-25T16:36:54.442Z,98766.84
2022-11-25T16:39:21.255Z,98759.94
2022-11-25T16:41:56.376Z,98761.41
2022-11-25T16:44:25.467Z,98778.16
2022-11-25T16:46:53.476Z,98771.41
2022-11-25T16:49:21.712Z,98771.72
2022-11-25T16:51:50.690Z,98776.38
2022-11-25T16:54:21.909Z,98781.91
2022-11-25T16:56:52.069Z,98780.66
2022-11-25T17:02:02.074Z,98799.91
2022-11-25T17:04:28.936Z,98806.25
2022-11-25T17:07:30.614Z,98797.78
2022-11-25T17:12:22.640Z,98806.72
2022-11-25T17:14:49.610Z,98806.72
2022-11-25T17:17:24.584Z,98803.63
2022-11-25T17:19:52.640Z,98811.56
2022-11-25T17:22:24.695Z,98824.16
2022-11-25T17:24:51.631Z,98816.34
2022-11-25T17:27:28.899Z,98833.22
2022-11-25T17:29:57.480Z,98834.38
2022-11-25T17:32:25.646Z,98836.41
2022-11-25T17:34:52.441Z,98828.59
2022-11-25T17:37:23.269Z,98845.03
2022-11-25T17:39:53.748Z,98843.25
2022-11-25T17:42:28.039Z,98847.75
2022-11-25T17:47:26.704Z,98848.00
2022-11-25T17:49:53.498Z,98857.38
2022-11-25T17:52:20.189Z,98854.91
2022-11-25T17:54:46.922Z,98865.69
2022-11-25T17:57:21.132Z,98864.84
2022-11-25T17:59:47.976Z,98866.69
2022-11-25T18:02:20.060Z,98867.16
2022-11-25T18:04:46.883Z,98867.47
2022-11-25T18:07:13.793Z,98879.97
2022-11-25T18:09:40.417Z,98888.56
2022-11-25T18:12:13.034Z,98888.84
2022-11-25T18:14:42.978Z,98891.50
2022-11-25T18:17:16.844Z,98897.75
2022-11-25T18:19:43.580Z,98902.41
2022-11-25T18:22:18.768Z,98906.09
2022-11-25T18:27:28.867Z,98909.19
2022-11-25T18:29:56.562Z,98915.38
2022-11-25T18:32:24.864Z,98917.00
2022-11-25T18:34:52.339Z,98917.34
2022-11-25T18:39:57.415Z,98924.31
2022-11-25T18:42:26.985Z,98920.66
2022-11-25T18:44:55.344Z,98932.25
2022-11-25T18:47:22.174Z,98936.91
2022-11-25T18:49:55.166Z,98936.91
2022-11-25T18:52:23.630Z,98939.28
2022-11-25T18:57:21.668Z,98942.84
2022-11-25T19:02:20.476Z,98950.69
2022-11-25T19:04:47.227Z,98958.78
2022-11-25T19:07:13.952Z,98955.28
2022-11-25T19:12:17.223Z,98966.28
2022-11-25T19:14:44.129Z,98967.00
2022-11-25T19:17:21.474Z,98966.81
2022-11-25T19:19:48.148Z,98968.34
2022-11-25T19:22:16.446Z,98978.16
2022-11-25T19:24:43.328Z,98981.53
2022-11-25T19:27:23.551Z,98994.19
2022-11-25T19:29:52.100Z,98997.50
2022-11-25T19:32:28.277Z,99003.63
2022-11-25T19:35:05.946Z,99011.88
2022-11-25T19:37:32.590Z,99014.97
2022-11-25T19:39:59.325Z,99013.03
2022-11-25T19:42:26.062Z,99018.00
2022-11-25T19:44:55.666Z,99023.09
2022-11-25T19:47:26.844Z,99027.59
2022-11-25T19:49:58.298Z,99032.72
2022-11-25T19:55:18.574Z,99033.63
2022-11-25T19:57:45.704Z,99041.66
2022-11-25T20:00:14.435Z,99042.59
2022-11-25T20:02:42.156Z,99051.75
2022-11-25T20:05:09.844Z,99047.88
2022-11-25T20:07:37.020Z,99052.13
2022-11-25T20:10:19.187Z,99059.97
2022-11-25T20:12:46.332Z,99063.53
2022-11-25T20:15:13.388Z,99059.38
2022-11-25T20:17:44.150Z,99065.09
2022-11-25T20:20:18.007Z,99074.56
2022-11-25T20:22:55.782Z,99080.97
2022-11-25T20:25:23.157Z,99090.06
2022-11-25T20:27:49.787Z,99086.72
2022-11-25T20:30:20.472Z,99099.28
2022-11-25T20:35:19.291Z,99103.00
2022-11-25T20:37:54.510Z,99103.69
2022-11-25T20:40:25.778Z,99106.41
2022-11-25T20:42:53.378Z,99112.19
2022-11-25T20:45:23.522Z,99117.34
2022-11-25T20:47:51.203Z,99128.22
2022-11-25T20:50:19.902Z,99126.94
2022-11-25T20:52:50.503Z,99126.00
2022-11-25T20:55:19.306Z,99126.34
2022-11-25T20:57:46.750Z,99133.03
2022-11-25T21:00:19.064Z,99137.19
2022-11-25T21:02:46.261Z,99142.63
2022-11-25T21:05:12.990Z,99140.06
2022-11-25T21:07:40.109Z,99147.88
2022-11-25T21:10:26.033Z,99141.97
2022-11-25T21:12:53.281Z,99143.06
2022-11-25T21:15:23.122Z,99145.63
2022-11-25T21:17:51.793Z,99149.97
2022-11-25T21:20:19.216Z,99155.06
2022-11-25T21:22:49.557Z,99155.53
2022-11-25T21:25:18.898Z,99165.97
2022-11-25T21:27:47.417Z,99159.03
2022-11-25T21:30:23.218Z,99167.72
2022-11-25T21:35:32.247Z,99177.31
2022-11-25T21:38:01.966Z,99176.47
2022-11-25T21:40:44.275Z,99180.19
2022-11-25T21:43:21.710Z,99180.19
2022-11-25T21:45:50.261Z,99176.84
2022-11-25T21:48:23.141Z,99188.19
2022-11-25T21:50:49.941Z,99187.56
2022-11-25T21:53:18.493Z,99192.66
2022-11-25T21:55:46.201Z,99193.75
2022-11-25T21:58:22.698Z,99201.28
2022-11-25T22:00:56.100Z,99203.34
2022-11-25T22:05:58.270Z,99206.06
2022-11-25T22:08:24.911Z,99205.91
2022-11-25T22:10:54.197Z,99204.47
2022-11-25T22:13:29.961Z,99204.97
2022-11-25T22:15:59.100Z,99206.03
2022-11-25T22:18:30.793Z,99208.94
2022-11-25T22:20:57.998Z,99208.47
2022-11-25T22:23:24.954Z,99212.75
2022-11-25T22:25:52.304Z,99223.16
2022-11-25T22:28:23.020Z,99227.28
2022-11-25T22:31:07.931Z,99217.56
2022-11-25T22:33:37.522Z,99229.22
2022-11-25T22:36:05.121Z,99222.19
2022-11-25T22:38:32.112Z,99224.44
2022-11-25T22:41:01.826Z,99232.09
2022-11-25T22:43:35.516Z,99234.16
2022-11-25T22:46:03.431Z,99241.03
2022-11-25T22:48:38.977Z,99244.22
2022-11-25T22:51:06.394Z,99245.00
2022-11-25T22:53:33.058Z,99248.69
2022-11-25T22:56:00.211Z,99241.81
2022-11-25T22:58:27.955Z,99242.13
2022-11-25T23:00:56.732Z,99242.63
2022-11-25T23:03:29.443Z,99251.41
2022-11-25T23:05:57.202Z,99257.59
2022-11-25T23:08:26.926Z,99252.69
2022-11-25T23:10:54.975Z,99254.25
2022-11-25T23:13:22.223Z,99249.16
2022-11-25T23:15:53.419Z,99256.81
2022-11-25T23:18:46.011Z,99267.38
2022-11-25T23:21:23.527Z,99266.41
2022-11-25T23:23:50.568Z,99274.38
2022-11-25T23:26:17.738Z,99261.75
2022-11-25T23:28:44.383Z,99267.38
2022-11-25T23:31:13.945Z,99257.28
2022-11-25T23:36:35.497Z,99258.09
2022-11-25T23:39:03.984Z,99264.63
2022-11-25T23:41:33.831Z,99263.34
2022-11-25T23:44:17.057Z,99260.78
2022-11-25T23:46:44.475Z,99261.06
2022-11-25T23:49:27.776Z,99256.00
2022-11-25T23:52:04.600Z,99261.78
2022-11-25T23:54:40.681Z,99260.28
2022-11-25T23:57:14.545Z,99265.09
2022-11-25T23:59:41.602Z,99273.94
